Mayfield Heights, OH (44124)

10:36 AM EST on November 22, 2014 (GMT -0500)
Buckeye Woodhill | Change Station
CLOSE
Current Station
Personal Weather Station
Location: Cleveland, OH
Elevation: 776 ft
Nearby Weather Stations
Active Advisory: Freezing Rain Advisory Active Notice: Record Report, Local Storm Report

Elev 776 ft 41.48 °N, 81.62 °W | Updated 36 seconds ago

Light Rain
Light Rain Mist
35.6 °F
Feels Like 30 °F
N
7.4
Wind Variable Wind from South
Gusts 14.0 mph

Today
High -- | Low -- °F
--% Chance of Precip.
Yesterday
High -- | Low -- °F
Precip. -- in
7:23 AM 5:01 PM
New Moon, 0% visible
Pressure 30.17 in
Visibility 2.5 miles
Clouds Few 1200 ft
Mostly Cloudy 3000 ft
Overcast 4200 ft
Windchill 30 °F
Dew Point 34 °F
Humidity 93%
Rainfall 0.00 in
Snow Depth Not available.
UV 0 out of 12
Pollen .10 out of 12
Air Quality Not available.
Flu Activity Not available.
METAR KBKL 221453Z 16019G26KT 2 1/2SM -RA BR FEW012 BKN030 OVC042 02/00 A3015 RMK AO2 PK WND 17029/1356 RAB08E21B29UPB21E29SNE08 SLP217 P0008 60010 T00220000 58014

More Conditions Fewer Conditions

Pressure 30.17 in
Visibility 2.5 miles
Clouds Few 1200 ft
Mostly Cloudy 3000 ft
Overcast 4200 ft
Windchill 30 °F
Dew Point 34 °F
Humidity 93%
Rainfall 0.00 in
Snow Depth Not available.
UV 0 out of 12
Pollen .10 out of 12
Air Quality Not available.
Flu Activity Not available.
METAR KBKL 221453Z 16019G26KT 2 1/2SM -RA BR FEW012 BKN030 OVC042 02/00 A3015 RMK AO2 PK WND 17029/1356 RAB08E21B29UPB21E29SNE08 SLP217 P0008 60010 T00220000 58014

More Conditions Fewer Conditions

10-Day Weather Forecast

Almanac

Astronomy

Nov. 22, 2014 Rise Set
Actual Time
Civil Twilight
Nautical Twilight
Astronomical Twilight
Moon
Length of Visible Light
Length of Day
Tomorrow will be .
, % of the Moon is Illuminated

Today's Extremes

State Highs State Lows

Community

WunderPhotos

Upload Photos

1,772,835 photos uploaded!

WunderBlogs® & News

Nearby

Air Quality

  Air Quality AQ Index Pollutant
Not available.

Snow Depth

Station Depth Elevation

Earthquake Activity

City Distance Mag. Time & Date
Minimum magnitude displayed is 2.5.

Coastal Water Temperatures

Place Temperature

Nearby Weather Stations